sensor_id;sensor_type;location;lat;lon;timestamp;temperature;humidity
6377;DHT22;3221;48.858;10.128;2024-03-25T00:02:01;3.30;99.90
6377;DHT22;3221;48.858;10.128;2024-03-25T00:04:27;3.30;99.90
6377;DHT22;3221;48.858;10.128;2024-03-25T00:06:53;3.20;99.90
6377;DHT22;3221;48.858;10.128;2024-03-25T00:09:19;3.30;99.90
6377;DHT22;3221;48.858;10.128;2024-03-25T00:11:46;3.30;99.90
6377;DHT22;3221;48.858;10.128;2024-03-25T00:14:12;3.30;99.90
6377;DHT22;3221;48.858;10.128;2024-03-25T00:16:37;3.20;99.90
6377;DHT22;3221;48.858;10.128;2024-03-25T00:19:03;3.20;99.90
6377;DHT22;3221;48.858;10.128;2024-03-25T00:21:29;3.20;99.90
6377;DHT22;3221;48.858;10.128;2024-03-25T00:23:56;3.20;99.90
6377;DHT22;3221;48.858;10.128;2024-03-25T00:26:23;3.20;99.90
6377;DHT22;3221;48.858;10.128;2024-03-25T00:28:49;3.20;99.90
6377;DHT22;3221;48.858;10.128;2024-03-25T00:31:15;3.30;99.90
6377;DHT22;3221;48.858;10.128;2024-03-25T00:33:41;3.30;99.90
6377;DHT22;3221;48.858;10.128;2024-03-25T00:36:07;3.30;99.90
6377;DHT22;3221;48.858;10.128;2024-03-25T00:38:33;3.30;99.90
6377;DHT22;3221;48.858;10.128;2024-03-25T00:40:59;3.20;99.90
6377;DHT22;3221;48.858;10.128;2024-03-25T00:43:25;3.20;99.90
6377;DHT22;3221;48.858;10.128;2024-03-25T00:45:50;3.20;99.90
6377;DHT22;3221;48.858;10.128;2024-03-25T00:48:16;3.20;99.90
6377;DHT22;3221;48.858;10.128;2024-03-25T00:50:42;3.20;99.90
6377;DHT22;3221;48.858;10.128;2024-03-25T00:53:08;3.10;99.90
6377;DHT22;3221;48.858;10.128;2024-03-25T00:55:34;3.20;99.90
6377;DHT22;3221;48.858;10.128;2024-03-25T00:58:04;3.10;99.90
6377;DHT22;3221;48.858;10.128;2024-03-25T01:00:30;3.10;99.90
6377;DHT22;3221;48.858;10.128;2024-03-25T01:02:55;3.10;99.90
6377;DHT22;3221;48.858;10.128;2024-03-25T01:05:21;3.00;99.90
6377;DHT22;3221;48.858;10.128;2024-03-25T01:07:47;3.10;99.90
6377;DHT22;3221;48.858;10.128;2024-03-25T01:10:15;3.20;99.90
6377;DHT22;3221;48.858;10.128;2024-03-25T01:12:42;3.20;99.90
6377;DHT22;3221;48.858;10.128;2024-03-25T01:15:08;3.20;99.90
6377;DHT22;3221;48.858;10.128;2024-03-25T01:17:38;3.20;99.90
6377;DHT22;3221;48.858;10.128;2024-03-25T01:20:05;3.10;99.90
6377;DHT22;3221;48.858;10.128;2024-03-25T01:22:31;3.00;99.90
6377;DHT22;3221;48.858;10.128;2024-03-25T01:24:57;3.00;99.90
6377;DHT22;3221;48.858;10.128;2024-03-25T01:27:23;3.00;99.90
6377;DHT22;3221;48.858;10.128;2024-03-25T01:29:49;3.10;99.90
6377;DHT22;3221;48.858;10.128;2024-03-25T01:32:15;3.10;99.90
6377;DHT22;3221;48.858;10.128;2024-03-25T01:34:41;3.10;99.90
6377;DHT22;3221;48.858;10.128;2024-03-25T01:37:07;3.20;99.90
6377;DHT22;3221;48.858;10.128;2024-03-25T01:39:33;3.00;99.90
6377;DHT22;3221;48.858;10.128;2024-03-25T01:41:59;3.00;99.90
6377;DHT22;3221;48.858;10.128;2024-03-25T01:44:24;3.00;99.90
6377;DHT22;3221;48.858;10.128;2024-03-25T01:46:50;3.10;99.90
6377;DHT22;3221;48.858;10.128;2024-03-25T01:49:19;3.10;99.90
6377;DHT22;3221;48.858;10.128;2024-03-25T01:51:45;3.00;99.90
6377;DHT22;3221;48.858;10.128;2024-03-25T01:54:12;3.10;99.90
6377;DHT22;3221;48.858;10.128;2024-03-25T01:56:42;3.10;99.90
6377;DHT22;3221;48.858;10.128;2024-03-25T01:59:09;3.00;99.90
6377;DHT22;3221;48.858;10.128;2024-03-25T02:01:35;3.10;99.90
6377;DHT22;3221;48.858;10.128;2024-03-25T02:04:01;3.10;99.90
6377;DHT22;3221;48.858;10.128;2024-03-25T02:06:28;3.00;99.90
6377;DHT22;3221;48.858;10.128;2024-03-25T02:08:56;3.10;99.90
6377;DHT22;3221;48.858;10.128;2024-03-25T02:11:23;3.20;99.90
6377;DHT22;3221;48.858;10.128;2024-03-25T02:13:50;3.20;99.90
6377;DHT22;3221;48.858;10.128;2024-03-25T02:16:17;3.10;99.90
6377;DHT22;3221;48.858;10.128;2024-03-25T02:18:43;3.10;99.90
6377;DHT22;3221;48.858;10.128;2024-03-25T02:21:09;3.10;99.90
6377;DHT22;3221;48.858;10.128;2024-03-25T02:23:38;3.10;99.90
6377;DHT22;3221;48.858;10.128;2024-03-25T02:26:04;3.20;99.90
6377;DHT22;3221;48.858;10.128;2024-03-25T02:28:30;3.10;99.90
6377;DHT22;3221;48.858;10.128;2024-03-25T02:30:56;3.00;99.90
6377;DHT22;3221;48.858;10.128;2024-03-25T02:33:22;3.10;99.90
6377;DHT22;3221;48.858;10.128;2024-03-25T02:35:48;3.10;99.90
6377;DHT22;3221;48.858;10.128;2024-03-25T02:38:14;3.10;99.90
6377;DHT22;3221;48.858;10.128;2024-03-25T02:40:43;3.10;99.90
6377;DHT22;3221;48.858;10.128;2024-03-25T02:43:10;3.10;99.90
6377;DHT22;3221;48.858;10.128;2024-03-25T02:45:36;3.10;99.90
6377;DHT22;3221;48.858;10.128;2024-03-25T02:48:03;3.00;99.90
6377;DHT22;3221;48.858;10.128;2024-03-25T02:50:28;3.10;99.90
6377;DHT22;3221;48.858;10.128;2024-03-25T02:52:54;3.10;99.90
6377;DHT22;3221;48.858;10.128;2024-03-25T02:55:20;3.20;99.90
6377;DHT22;3221;48.858;10.128;2024-03-25T02:57:46;3.20;99.90
6377;DHT22;3221;48.858;10.128;2024-03-25T03:00:12;3.10;99.90
6377;DHT22;3221;48.858;10.128;2024-03-25T03:02:39;3.20;99.90
6377;DHT22;3221;48.858;10.128;2024-03-25T03:05:05;3.10;99.90
6377;DHT22;3221;48.858;10.128;2024-03-25T03:07:31;3.20;99.90
6377;DHT22;3221;48.858;10.128;2024-03-25T03:09:57;3.20;99.90
6377;DHT22;3221;48.858;10.128;2024-03-25T03:12:23;3.10;99.90
6377;DHT22;3221;48.858;10.128;2024-03-25T03:14:48;3.10;99.90
6377;DHT22;3221;48.858;10.128;2024-03-25T03:17:14;3.10;99.90
6377;DHT22;3221;48.858;10.128;2024-03-25T03:19:41;3.10;99.90
6377;DHT22;3221;48.858;10.128;2024-03-25T03:22:07;3.10;99.90
6377;DHT22;3221;48.858;10.128;2024-03-25T03:24:33;3.20;99.90
6377;DHT22;3221;48.858;10.128;2024-03-25T03:26:59;3.20;99.90
6377;DHT22;3221;48.858;10.128;2024-03-25T03:29:25;3.20;99.90
6377;DHT22;3221;48.858;10.128;2024-03-25T03:31:51;3.20;99.90
6377;DHT22;3221;48.858;10.128;2024-03-25T03:34:17;3.20;99.90
6377;DHT22;3221;48.858;10.128;2024-03-25T03:36:42;3.10;99.90
6377;DHT22;3221;48.858;10.128;2024-03-25T03:39:08;3.20;99.90
6377;DHT22;3221;48.858;10.128;2024-03-25T03:41:35;3.10;99.90
6377;DHT22;3221;48.858;10.128;2024-03-25T03:44:01;3.10;99.90
6377;DHT22;3221;48.858;10.128;2024-03-25T03:46:27;3.10;99.90
6377;DHT22;3221;48.858;10.128;2024-03-25T03:48:53;3.10;99.90
6377;DHT22;3221;48.858;10.128;2024-03-25T03:51:19;3.10;99.90
6377;DHT22;3221;48.858;10.128;2024-03-25T03:53:45;3.10;99.90
6377;DHT22;3221;48.858;10.128;2024-03-25T03:56:11;3.10;99.90
6377;DHT22;3221;48.858;10.128;2024-03-25T03:58:37;3.20;99.90
6377;DHT22;3221;48.858;10.128;2024-03-25T04:01:03;3.20;99.90
6377;DHT22;3221;48.858;10.128;2024-03-25T04:03:30;3.20;99.90
6377;DHT22;3221;48.858;10.128;2024-03-25T04:05:56;3.20;99.90
6377;DHT22;3221;48.858;10.128;2024-03-25T04:08:22;3.10;99.90
6377;DHT22;3221;48.858;10.128;2024-03-25T04:10:48;3.10;99.90
6377;DHT22;3221;48.858;10.128;2024-03-25T04:13:13;3.10;99.90
6377;DHT22;3221;48.858;10.128;2024-03-25T04:15:40;3.10;99.90
6377;DHT22;3221;48.858;10.128;2024-03-25T04:18:08;3.10;99.90
6377;DHT22;3221;48.858;10.128;2024-03-25T04:20:41;3.10;99.90
6377;DHT22;3221;48.858;10.128;2024-03-25T04:23:07;3.20;99.90
6377;DHT22;3221;48.858;10.128;2024-03-25T04:25:36;3.20;99.90
6377;DHT22;3221;48.858;10.128;2024-03-25T04:28:06;3.20;99.90
6377;DHT22;3221;48.858;10.128;2024-03-25T04:30:32;3.20;99.90
6377;DHT22;3221;48.858;10.128;2024-03-25T04:32:59;3.20;99.90
6377;DHT22;3221;48.858;10.128;2024-03-25T04:35:25;3.20;99.90
6377;DHT22;3221;48.858;10.128;2024-03-25T04:37:51;3.20;99.90
6377;DHT22;3221;48.858;10.128;2024-03-25T04:40:17;3.30;99.90
6377;DHT22;3221;48.858;10.128;2024-03-25T04:42:45;3.30;99.90
6377;DHT22;3221;48.858;10.128;2024-03-25T04:45:11;3.30;99.90
6377;DHT22;3221;48.858;10.128;2024-03-25T04:47:38;3.20;99.90
6377;DHT22;3221;48.858;10.128;2024-03-25T04:50:04;3.20;99.90
6377;DHT22;3221;48.858;10.128;2024-03-25T04:52:31;3.20;99.90
6377;DHT22;3221;48.858;10.128;2024-03-25T04:54:57;3.20;99.90
6377;DHT22;3221;48.858;10.128;2024-03-25T04:57:23;3.10;99.90
6377;DHT22;3221;48.858;10.128;2024-03-25T04:59:49;3.20;99.90
6377;DHT22;3221;48.858;10.128;2024-03-25T05:02:15;3.20;99.90
6377;DHT22;3221;48.858;10.128;2024-03-25T05:04:41;3.20;99.90
6377;DHT22;3221;48.858;10.128;2024-03-25T05:07:07;3.30;99.90
6377;DHT22;3221;48.858;10.128;2024-03-25T05:09:33;3.10;99.90
6377;DHT22;3221;48.858;10.128;2024-03-25T05:11:59;3.10;99.90
6377;DHT22;3221;48.858;10.128;2024-03-25T05:14:25;3.10;99.90
6377;DHT22;3221;48.858;10.128;2024-03-25T05:16:51;3.20;99.90
6377;DHT22;3221;48.858;10.128;2024-03-25T05:19:18;3.20;99.90
6377;DHT22;3221;48.858;10.128;2024-03-25T05:21:44;3.20;99.90
6377;DHT22;3221;48.858;10.128;2024-03-25T05:24:10;3.40;99.90
6377;DHT22;3221;48.858;10.128;2024-03-25T05:26:36;3.20;99.90
6377;DHT22;3221;48.858;10.128;2024-03-25T05:29:02;3.10;99.90
6377;DHT22;3221;48.858;10.128;2024-03-25T05:31:28;3.20;99.90
6377;DHT22;3221;48.858;10.128;2024-03-25T05:33:54;3.20;99.90
6377;DHT22;3221;48.858;10.128;2024-03-25T05:36:20;3.20;99.90
6377;DHT22;3221;48.858;10.128;2024-03-25T05:38:46;3.20;99.90
6377;DHT22;3221;48.858;10.128;2024-03-25T05:41:12;3.20;99.90
6377;DHT22;3221;48.858;10.128;2024-03-25T05:43:38;3.20;99.90
6377;DHT22;3221;48.858;10.128;2024-03-25T05:46:04;3.20;99.90
6377;DHT22;3221;48.858;10.128;2024-03-25T05:48:30;3.20;99.90
6377;DHT22;3221;48.858;10.128;2024-03-25T05:51:04;3.20;99.90
6377;DHT22;3221;48.858;10.128;2024-03-25T05:53:33;3.30;99.90
6377;DHT22;3221;48.858;10.128;2024-03-25T05:55:59;3.20;99.90
6377;DHT22;3221;48.858;10.128;2024-03-25T05:58:26;3.30;99.90
6377;DHT22;3221;48.858;10.128;2024-03-25T06:00:52;3.40;99.90
6377;DHT22;3221;48.858;10.128;2024-03-25T06:03:18;3.50;99.90
6377;DHT22;3221;48.858;10.128;2024-03-25T06:05:44;3.40;99.90
6377;DHT22;3221;48.858;10.128;2024-03-25T06:08:10;3.30;99.90
6377;DHT22;3221;48.858;10.128;2024-03-25T06:10:52;3.20;99.90
6377;DHT22;3221;48.858;10.128;2024-03-25T06:13:19;3.30;99.90
6377;DHT22;3221;48.858;10.128;2024-03-25T06:15:45;3.30;99.90
6377;DHT22;3221;48.858;10.128;2024-03-25T06:18:14;3.30;99.90
6377;DHT22;3221;48.858;10.128;2024-03-25T06:20:40;3.30;99.90
6377;DHT22;3221;48.858;10.128;2024-03-25T06:23:05;3.40;99.90
6377;DHT22;3221;48.858;10.128;2024-03-25T06:25:32;3.40;99.90
6377;DHT22;3221;48.858;10.128;2024-03-25T06:27:59;3.40;99.90
6377;DHT22;3221;48.858;10.128;2024-03-25T06:30:25;3.50;99.90
6377;DHT22;3221;48.858;10.128;2024-03-25T06:33:09;3.30;99.90
6377;DHT22;3221;48.858;10.128;2024-03-25T06:36:10;3.40;99.90
6377;DHT22;3221;48.858;10.128;2024-03-25T06:38:36;3.30;99.90
6377;DHT22;3221;48.858;10.128;2024-03-25T06:41:02;3.30;99.90
6377;DHT22;3221;48.858;10.128;2024-03-25T06:43:28;3.40;99.90
6377;DHT22;3221;48.858;10.128;2024-03-25T06:45:54;3.30;99.90
6377;DHT22;3221;48.858;10.128;2024-03-25T06:48:20;3.30;99.90
6377;DHT22;3221;48.858;10.128;2024-03-25T06:50:59;3.40;99.90
6377;DHT22;3221;48.858;10.128;2024-03-25T06:53:25;3.40;99.90
6377;DHT22;3221;48.858;10.128;2024-03-25T06:56:00;3.50;99.90
6377;DHT22;3221;48.858;10.128;2024-03-25T06:58:30;3.40;99.90
6377;DHT22;3221;48.858;10.128;2024-03-25T07:01:03;3.40;99.90
6377;DHT22;3221;48.858;10.128;2024-03-25T07:03:29;3.40;99.90
6377;DHT22;3221;48.858;10.128;2024-03-25T07:05:55;3.40;99.90
6377;DHT22;3221;48.858;10.128;2024-03-25T07:08:22;3.40;99.90
6377;DHT22;3221;48.858;10.128;2024-03-25T07:10:48;3.40;99.90
6377;DHT22;3221;48.858;10.128;2024-03-25T07:13:14;3.30;99.90
6377;DHT22;3221;48.858;10.128;2024-03-25T07:15:40;3.40;99.90
6377;DHT22;3221;48.858;10.128;2024-03-25T07:18:06;3.40;99.90
6377;DHT22;3221;48.858;10.128;2024-03-25T07:20:32;3.30;99.90
6377;DHT22;3221;48.858;10.128;2024-03-25T07:22:58;3.40;99.90
6377;DHT22;3221;48.858;10.128;2024-03-25T07:25:25;3.40;99.90
6377;DHT22;3221;48.858;10.128;2024-03-25T07:27:51;3.40;99.90
6377;DHT22;3221;48.858;10.128;2024-03-25T07:30:18;3.40;99.90
6377;DHT22;3221;48.858;10.128;2024-03-25T07:32:44;3.40;99.90
6377;DHT22;3221;48.858;10.128;2024-03-25T07:35:11;3.40;99.90
6377;DHT22;3221;48.858;10.128;2024-03-25T07:37:37;3.30;99.90
6377;DHT22;3221;48.858;10.128;2024-03-25T07:40:06;3.30;99.90
6377;DHT22;3221;48.858;10.128;2024-03-25T07:42:32;3.40;99.90
6377;DHT22;3221;48.858;10.128;2024-03-25T07:44:58;3.50;99.90
6377;DHT22;3221;48.858;10.128;2024-03-25T07:47:24;3.50;99.90
6377;DHT22;3221;48.858;10.128;2024-03-25T07:49:49;3.50;99.90
6377;DHT22;3221;48.858;10.128;2024-03-25T07:52:15;3.50;99.90
6377;DHT22;3221;48.858;10.128;2024-03-25T07:54:41;3.50;99.90
6377;DHT22;3221;48.858;10.128;2024-03-25T07:57:08;3.60;99.90
6377;DHT22;3221;48.858;10.128;2024-03-25T07:59:35;3.70;99.90
6377;DHT22;3221;48.858;10.128;2024-03-25T08:02:01;3.60;99.90
6377;DHT22;3221;48.858;10.128;2024-03-25T08:04:27;3.60;99.90
6377;DHT22;3221;48.858;10.128;2024-03-25T08:06:53;3.70;99.90
6377;DHT22;3221;48.858;10.128;2024-03-25T08:09:19;3.90;99.90
6377;DHT22;3221;48.858;10.128;2024-03-25T08:11:45;3.90;99.90
6377;DHT22;3221;48.858;10.128;2024-03-25T08:14:11;3.80;99.90
6377;DHT22;3221;48.858;10.128;2024-03-25T08:16:38;3.70;99.90
6377;DHT22;3221;48.858;10.128;2024-03-25T08:19:04;3.70;99.90
6377;DHT22;3221;48.858;10.128;2024-03-25T08:21:30;3.70;99.90
6377;DHT22;3221;48.858;10.128;2024-03-25T08:23:56;3.70;99.90
6377;DHT22;3221;48.858;10.128;2024-03-25T08:26:22;3.80;99.90
6377;DHT22;3221;48.858;10.128;2024-03-25T08:28:48;3.80;99.90
6377;DHT22;3221;48.858;10.128;2024-03-25T08:31:15;3.90;99.90
6377;DHT22;3221;48.858;10.128;2024-03-25T08:33:41;3.80;99.90
6377;DHT22;3221;48.858;10.128;2024-03-25T08:36:07;3.80;99.90
6377;DHT22;3221;48.858;10.128;2024-03-25T08:38:34;3.80;99.90
6377;DHT22;3221;48.858;10.128;2024-03-25T08:40:59;3.80;99.90
6377;DHT22;3221;48.858;10.128;2024-03-25T08:43:25;3.80;99.90
6377;DHT22;3221;48.858;10.128;2024-03-25T08:45:51;3.90;99.90
6377;DHT22;3221;48.858;10.128;2024-03-25T08:48:18;3.80;99.90
6377;DHT22;3221;48.858;10.128;2024-03-25T08:50:44;3.80;99.90
6377;DHT22;3221;48.858;10.128;2024-03-25T08:53:10;3.90;99.90
6377;DHT22;3221;48.858;10.128;2024-03-25T08:55:35;4.00;99.90
6377;DHT22;3221;48.858;10.128;2024-03-25T08:58:02;4.10;99.90
6377;DHT22;3221;48.858;10.128;2024-03-25T09:00:28;4.10;99.90
6377;DHT22;3221;48.858;10.128;2024-03-25T09:02:54;4.10;99.90
6377;DHT22;3221;48.858;10.128;2024-03-25T09:05:21;4.10;99.90
6377;DHT22;3221;48.858;10.128;2024-03-25T09:07:50;4.10;99.90
6377;DHT22;3221;48.858;10.128;2024-03-25T09:10:18;4.20;99.90
6377;DHT22;3221;48.858;10.128;2024-03-25T09:13:02;4.40;99.90
6377;DHT22;3221;48.858;10.128;2024-03-25T09:15:29;4.30;99.90
6377;DHT22;3221;48.858;10.128;2024-03-25T09:17:55;4.40;99.90
6377;DHT22;3221;48.858;10.128;2024-03-25T09:20:21;4.30;99.90
6377;DHT22;3221;48.858;10.128;2024-03-25T09:22:48;4.40;99.90
6377;DHT22;3221;48.858;10.128;2024-03-25T09:25:15;4.60;99.90
6377;DHT22;3221;48.858;10.128;2024-03-25T09:27:45;4.80;99.90
6377;DHT22;3221;48.858;10.128;2024-03-25T09:30:11;4.70;99.90
6377;DHT22;3221;48.858;10.128;2024-03-25T09:32:37;4.70;99.90
6377;DHT22;3221;48.858;10.128;2024-03-25T09:35:03;4.70;99.90
6377;DHT22;3221;48.858;10.128;2024-03-25T09:37:29;4.70;99.90
6377;DHT22;3221;48.858;10.128;2024-03-25T09:39:56;4.70;99.90
6377;DHT22;3221;48.858;10.128;2024-03-25T09:42:27;4.80;99.90
6377;DHT22;3221;48.858;10.128;2024-03-25T09:44:56;4.80;99.90
6377;DHT22;3221;48.858;10.128;2024-03-25T09:47:23;4.80;99.90
6377;DHT22;3221;48.858;10.128;2024-03-25T09:49:50;4.90;99.90
6377;DHT22;3221;48.858;10.128;2024-03-25T09:52:18;5.00;99.90
6377;DHT22;3221;48.858;10.128;2024-03-25T09:54:45;5.20;99.90
6377;DHT22;3221;48.858;10.128;2024-03-25T09:57:11;5.20;99.90
6377;DHT22;3221;48.858;10.128;2024-03-25T09:59:38;5.30;99.90
6377;DHT22;3221;48.858;10.128;2024-03-25T10:02:05;5.30;99.90
6377;DHT22;3221;48.858;10.128;2024-03-25T10:04:32;5.40;99.90
6377;DHT22;3221;48.858;10.128;2024-03-25T10:06:58;5.40;99.90
6377;DHT22;3221;48.858;10.128;2024-03-25T10:09:24;5.30;99.90
6377;DHT22;3221;48.858;10.128;2024-03-25T10:11:51;5.30;99.90
6377;DHT22;3221;48.858;10.128;2024-03-25T10:14:17;5.30;99.90
6377;DHT22;3221;48.858;10.128;2024-03-25T10:16:45;5.20;99.90
6377;DHT22;3221;48.858;10.128;2024-03-25T10:19:11;5.20;99.90
6377;DHT22;3221;48.858;10.128;2024-03-25T10:21:37;5.30;99.90
6377;DHT22;3221;48.858;10.128;2024-03-25T10:24:06;5.40;99.90
6377;DHT22;3221;48.858;10.128;2024-03-25T10:26:33;5.40;99.90
6377;DHT22;3221;48.858;10.128;2024-03-25T10:29:05;5.40;99.90
6377;DHT22;3221;48.858;10.128;2024-03-25T10:31:34;5.30;99.90
6377;DHT22;3221;48.858;10.128;2024-03-25T10:34:00;5.50;99.90
6377;DHT22;3221;48.858;10.128;2024-03-25T10:36:26;5.80;99.90
6377;DHT22;3221;48.858;10.128;2024-03-25T10:38:57;6.00;99.90
6377;DHT22;3221;48.858;10.128;2024-03-25T10:41:28;6.10;99.90
6377;DHT22;3221;48.858;10.128;2024-03-25T10:43:55;6.40;99.90
6377;DHT22;3221;48.858;10.128;2024-03-25T10:46:24;6.60;99.90
6377;DHT22;3221;48.858;10.128;2024-03-25T10:49:01;6.70;99.90
6377;DHT22;3221;48.858;10.128;2024-03-25T10:51:29;6.50;99.90
6377;DHT22;3221;48.858;10.128;2024-03-25T10:53:57;6.60;99.90
6377;DHT22;3221;48.858;10.128;2024-03-25T10:56:23;6.40;99.90
6377;DHT22;3221;48.858;10.128;2024-03-25T10:58:49;6.40;99.90
6377;DHT22;3221;48.858;10.128;2024-03-25T11:01:19;6.40;99.90
6377;DHT22;3221;48.858;10.128;2024-03-25T11:03:49;6.50;99.90
6377;DHT22;3221;48.858;10.128;2024-03-25T11:06:15;6.40;99.90
6377;DHT22;3221;48.858;10.128;2024-03-25T11:08:43;6.70;99.90
6377;DHT22;3221;48.858;10.128;2024-03-25T11:11:13;6.90;99.90
6377;DHT22;3221;48.858;10.128;2024-03-25T11:13:39;7.00;99.90
6377;DHT22;3221;48.858;10.128;2024-03-25T11:16:06;7.00;99.90
6377;DHT22;3221;48.858;10.128;2024-03-25T11:18:36;6.90;99.90
6377;DHT22;3221;48.858;10.128;2024-03-25T11:21:06;6.70;99.90
6377;DHT22;3221;48.858;10.128;2024-03-25T11:23:42;6.70;99.90
6377;DHT22;3221;48.858;10.128;2024-03-25T11:26:24;6.90;99.90
6377;DHT22;3221;48.858;10.128;2024-03-25T11:28:51;7.00;99.90
6377;DHT22;3221;48.858;10.128;2024-03-25T11:31:25;7.10;99.90
6377;DHT22;3221;48.858;10.128;2024-03-25T11:33:51;7.10;99.90
6377;DHT22;3221;48.858;10.128;2024-03-25T11:36:18;7.40;99.90
6377;DHT22;3221;48.858;10.128;2024-03-25T11:38:46;7.60;99.90
6377;DHT22;3221;48.858;10.128;2024-03-25T11:41:22;7.70;99.90
6377;DHT22;3221;48.858;10.128;2024-03-25T11:43:48;7.70;99.90
6377;DHT22;3221;48.858;10.128;2024-03-25T11:46:18;7.60;99.90
6377;DHT22;3221;48.858;10.128;2024-03-25T11:48:44;7.50;99.90
6377;DHT22;3221;48.858;10.128;2024-03-25T11:51:17;7.60;99.90
6377;DHT22;3221;48.858;10.128;2024-03-25T11:53:43;7.80;99.90
6377;DHT22;3221;48.858;10.128;2024-03-25T11:56:13;7.70;99.90
6377;DHT22;3221;48.858;10.128;2024-03-25T11:58:39;7.80;99.90
6377;DHT22;3221;48.858;10.128;2024-03-25T12:01:05;7.80;99.90
6377;DHT22;3221;48.858;10.128;2024-03-25T12:03:33;7.80;99.90
6377;DHT22;3221;48.858;10.128;2024-03-25T12:05:59;7.90;99.90
6377;DHT22;3221;48.858;10.128;2024-03-25T12:08:27;7.80;99.90
6377;DHT22;3221;48.858;10.128;2024-03-25T12:10:55;7.70;99.90
6377;DHT22;3221;48.858;10.128;2024-03-25T12:13:39;7.70;99.90
6377;DHT22;3221;48.858;10.128;2024-03-25T12:16:09;7.90;99.90
6377;DHT22;3221;48.858;10.128;2024-03-25T12:18:40;7.70;99.90
6377;DHT22;3221;48.858;10.128;2024-03-25T12:21:12;7.70;99.90
6377;DHT22;3221;48.858;10.128;2024-03-25T12:23:38;7.80;99.90
6377;DHT22;3221;48.858;10.128;2024-03-25T12:26:04;8.10;99.90
6377;DHT22;3221;48.858;10.128;2024-03-25T12:28:34;8.20;99.90
6377;DHT22;3221;48.858;10.128;2024-03-25T12:31:02;8.40;99.90
6377;DHT22;3221;48.858;10.128;2024-03-25T12:33:49;8.30;99.90
6377;DHT22;3221;48.858;10.128;2024-03-25T12:36:14;8.50;99.90
6377;DHT22;3221;48.858;10.128;2024-03-25T12:38:41;8.50;99.90
6377;DHT22;3221;48.858;10.128;2024-03-25T12:41:08;8.70;99.90
6377;DHT22;3221;48.858;10.128;2024-03-25T12:43:36;8.30;99.90
6377;DHT22;3221;48.858;10.128;2024-03-25T12:46:03;8.50;99.90
6377;DHT22;3221;48.858;10.128;2024-03-25T12:48:31;8.60;99.90
6377;DHT22;3221;48.858;10.128;2024-03-25T12:50:57;8.80;99.90
6377;DHT22;3221;48.858;10.128;2024-03-25T12:53:23;8.90;99.90
6377;DHT22;3221;48.858;10.128;2024-03-25T12:55:49;9.00;99.90
6377;DHT22;3221;48.858;10.128;2024-03-25T12:58:15;9.30;99.90
6377;DHT22;3221;48.858;10.128;2024-03-25T13:00:41;9.10;99.90
6377;DHT22;3221;48.858;10.128;2024-03-25T13:03:08;8.90;99.90
6377;DHT22;3221;48.858;10.128;2024-03-25T13:05:34;8.80;99.90
6377;DHT22;3221;48.858;10.128;2024-03-25T13:08:01;8.80;99.90
6377;DHT22;3221;48.858;10.128;2024-03-25T13:10:28;8.90;99.90
6377;DHT22;3221;48.858;10.128;2024-03-25T13:12:55;9.00;99.90
6377;DHT22;3221;48.858;10.128;2024-03-25T13:15:21;9.20;99.90
6377;DHT22;3221;48.858;10.128;2024-03-25T13:17:46;9.30;99.90
6377;DHT22;3221;48.858;10.128;2024-03-25T13:20:13;9.20;99.90
6377;DHT22;3221;48.858;10.128;2024-03-25T13:22:39;9.00;99.90
6377;DHT22;3221;48.858;10.128;2024-03-25T13:25:06;8.90;99.90
6377;DHT22;3221;48.858;10.128;2024-03-25T13:27:33;8.80;99.90
6377;DHT22;3221;48.858;10.128;2024-03-25T13:29:59;8.80;99.90
6377;DHT22;3221;48.858;10.128;2024-03-25T13:32:24;8.80;99.90
6377;DHT22;3221;48.858;10.128;2024-03-25T13:34:51;8.80;99.90
6377;DHT22;3221;48.858;10.128;2024-03-25T13:37:16;8.90;99.90
6377;DHT22;3221;48.858;10.128;2024-03-25T13:39:42;8.90;99.90
6377;DHT22;3221;48.858;10.128;2024-03-25T13:42:08;9.00;99.90
6377;DHT22;3221;48.858;10.128;2024-03-25T13:44:34;9.00;99.90
6377;DHT22;3221;48.858;10.128;2024-03-25T13:47:00;9.10;99.90
6377;DHT22;3221;48.858;10.128;2024-03-25T13:49:26;9.10;99.90
6377;DHT22;3221;48.858;10.128;2024-03-25T13:51:58;9.20;99.90
6377;DHT22;3221;48.858;10.128;2024-03-25T13:54:26;9.30;99.90
6377;DHT22;3221;48.858;10.128;2024-03-25T13:56:52;9.40;99.90
6377;DHT22;3221;48.858;10.128;2024-03-25T13:59:18;9.30;99.90
6377;DHT22;3221;48.858;10.128;2024-03-25T14:01:44;9.20;99.90
6377;DHT22;3221;48.858;10.128;2024-03-25T14:04:10;9.20;99.90
6377;DHT22;3221;48.858;10.128;2024-03-25T14:06:37;9.20;99.90
6377;DHT22;3221;48.858;10.128;2024-03-25T14:09:03;9.10;99.90
6377;DHT22;3221;48.858;10.128;2024-03-25T14:11:37;9.30;99.90
6377;DHT22;3221;48.858;10.128;2024-03-25T14:14:03;9.30;99.90
6377;DHT22;3221;48.858;10.128;2024-03-25T14:16:29;9.30;99.90
6377;DHT22;3221;48.858;10.128;2024-03-25T14:18:55;9.20;99.90
6377;DHT22;3221;48.858;10.128;2024-03-25T14:21:21;9.30;99.90
6377;DHT22;3221;48.858;10.128;2024-03-25T14:23:47;9.70;99.90
6377;DHT22;3221;48.858;10.128;2024-03-25T14:26:13;10.10;99.90
6377;DHT22;3221;48.858;10.128;2024-03-25T14:28:42;10.10;99.90
6377;DHT22;3221;48.858;10.128;2024-03-25T14:31:08;10.30;99.90
6377;DHT22;3221;48.858;10.128;2024-03-25T14:33:34;10.40;99.90
6377;DHT22;3221;48.858;10.128;2024-03-25T14:36:00;10.50;99.90
6377;DHT22;3221;48.858;10.128;2024-03-25T14:38:26;10.50;99.80
6377;DHT22;3221;48.858;10.128;2024-03-25T14:40:52;10.70;99.90
6377;DHT22;3221;48.858;10.128;2024-03-25T14:43:18;10.70;98.90
6377;DHT22;3221;48.858;10.128;2024-03-25T14:45:46;10.70;98.20
6377;DHT22;3221;48.858;10.128;2024-03-25T14:48:12;10.60;98.90
6377;DHT22;3221;48.858;10.128;2024-03-25T14:50:38;10.70;98.50
6377;DHT22;3221;48.858;10.128;2024-03-25T14:53:04;10.60;98.10
6377;DHT22;3221;48.858;10.128;2024-03-25T14:55:30;10.60;98.00
6377;DHT22;3221;48.858;10.128;2024-03-25T14:57:56;10.70;98.30
6377;DHT22;3221;48.858;10.128;2024-03-25T15:00:23;10.80;98.50
6377;DHT22;3221;48.858;10.128;2024-03-25T15:02:51;10.60;97.40
6377;DHT22;3221;48.858;10.128;2024-03-25T15:05:17;10.60;97.70
6377;DHT22;3221;48.858;10.128;2024-03-25T15:07:44;10.50;97.00
6377;DHT22;3221;48.858;10.128;2024-03-25T15:10:10;10.50;97.90
6377;DHT22;3221;48.858;10.128;2024-03-25T15:12:37;10.40;96.90
6377;DHT22;3221;48.858;10.128;2024-03-25T15:15:04;10.40;97.20
6377;DHT22;3221;48.858;10.128;2024-03-25T15:17:32;10.30;97.70
6377;DHT22;3221;48.858;10.128;2024-03-25T15:19:58;10.30;97.90
6377;DHT22;3221;48.858;10.128;2024-03-25T15:22:24;10.20;97.40
6377;DHT22;3221;48.858;10.128;2024-03-25T15:24:51;10.10;97.50
6377;DHT22;3221;48.858;10.128;2024-03-25T15:27:16;10.00;97.30
6377;DHT22;3221;48.858;10.128;2024-03-25T15:29:42;9.90;97.90
6377;DHT22;3221;48.858;10.128;2024-03-25T15:32:08;9.90;97.20
6377;DHT22;3221;48.858;10.128;2024-03-25T15:34:34;9.90;97.40
6377;DHT22;3221;48.858;10.128;2024-03-25T15:37:00;9.70;97.10
6377;DHT22;3221;48.858;10.128;2024-03-25T15:39:26;9.70;97.20
6377;DHT22;3221;48.858;10.128;2024-03-25T15:41:52;9.80;98.20
6377;DHT22;3221;48.858;10.128;2024-03-25T15:44:18;9.80;97.30
6377;DHT22;3221;48.858;10.128;2024-03-25T15:46:44;9.60;97.10
6377;DHT22;3221;48.858;10.128;2024-03-25T15:49:10;9.60;97.70
6377;DHT22;3221;48.858;10.128;2024-03-25T15:51:36;9.40;97.20
6377;DHT22;3221;48.858;10.128;2024-03-25T15:54:02;9.50;97.40
6377;DHT22;3221;48.858;10.128;2024-03-25T15:56:27;9.40;97.60
6377;DHT22;3221;48.858;10.128;2024-03-25T15:58:53;9.30;96.40